sensor_id;sensor_type;location;lat;lon;timestamp;P1;durP1;ratioP1;P2;durP2;ratioP2
5890;SDS011;2971;52.420;7.080;2023-02-15T00:01:35;43.53;;;29.53;;
5890;SDS011;2971;52.420;7.080;2023-02-15T00:04:01;38.53;;;28.80;;
5890;SDS011;2971;52.420;7.080;2023-02-15T00:06:27;40.97;;;28.70;;
5890;SDS011;2971;52.420;7.080;2023-02-15T00:08:53;41.00;;;29.13;;
5890;SDS011;2971;52.420;7.080;2023-02-15T00:11:19;38.00;;;27.67;;
5890;SDS011;2971;52.420;7.080;2023-02-15T00:16:48;37.83;;;27.93;;
5890;SDS011;2971;52.420;7.080;2023-02-15T00:19:16;40.90;;;28.13;;
5890;SDS011;2971;52.420;7.080;2023-02-15T00:21:42;42.50;;;29.90;;
5890;SDS011;2971;52.420;7.080;2023-02-15T00:24:08;43.00;;;31.17;;
5890;SDS011;2971;52.420;7.080;2023-02-15T00:26:35;42.83;;;30.00;;
5890;SDS011;2971;52.420;7.080;2023-02-15T00:29:01;45.27;;;29.33;;
5890;SDS011;2971;52.420;7.080;2023-02-15T00:31:27;46.17;;;30.70;;
5890;SDS011;2971;52.420;7.080;2023-02-15T00:33:55;45.60;;;30.30;;
5890;SDS011;2971;52.420;7.080;2023-02-15T00:36:21;45.03;;;30.47;;
5890;SDS011;2971;52.420;7.080;2023-02-15T00:38:46;47.30;;;30.70;;
5890;SDS011;2971;52.420;7.080;2023-02-15T00:41:11;45.57;;;29.87;;
5890;SDS011;2971;52.420;7.080;2023-02-15T00:43:37;44.70;;;28.63;;
5890;SDS011;2971;52.420;7.080;2023-02-15T00:46:03;46.87;;;31.27;;
5890;SDS011;2971;52.420;7.080;2023-02-15T00:48:29;49.77;;;33.03;;
5890;SDS011;2971;52.420;7.080;2023-02-15T00:50:56;47.37;;;32.97;;
5890;SDS011;2971;52.420;7.080;2023-02-15T00:53:23;45.23;;;30.33;;
5890;SDS011;2971;52.420;7.080;2023-02-15T00:55:48;45.90;;;30.57;;
5890;SDS011;2971;52.420;7.080;2023-02-15T00:58:14;42.13;;;30.13;;
5890;SDS011;2971;52.420;7.080;2023-02-15T01:00:40;40.53;;;28.70;;
5890;SDS011;2971;52.420;7.080;2023-02-15T01:03:07;39.20;;;27.17;;
5890;SDS011;2971;52.420;7.080;2023-02-15T01:05:32;37.50;;;27.13;;
5890;SDS011;2971;52.420;7.080;2023-02-15T01:07:58;37.57;;;28.23;;
5890;SDS011;2971;52.420;7.080;2023-02-15T01:10:24;39.90;;;29.10;;
5890;SDS011;2971;52.420;7.080;2023-02-15T01:12:50;43.87;;;29.00;;
5890;SDS011;2971;52.420;7.080;2023-02-15T01:15:16;42.70;;;29.17;;
5890;SDS011;2971;52.420;7.080;2023-02-15T01:17:41;42.70;;;29.60;;
5890;SDS011;2971;52.420;7.080;2023-02-15T01:20:09;42.40;;;28.47;;
5890;SDS011;2971;52.420;7.080;2023-02-15T01:22:34;43.87;;;28.93;;
5890;SDS011;2971;52.420;7.080;2023-02-15T01:25:00;45.83;;;30.70;;
5890;SDS011;2971;52.420;7.080;2023-02-15T01:27:25;43.97;;;27.40;;
5890;SDS011;2971;52.420;7.080;2023-02-15T01:29:50;44.10;;;31.67;;
5890;SDS011;2971;52.420;7.080;2023-02-15T01:32:16;48.53;;;32.27;;
5890;SDS011;2971;52.420;7.080;2023-02-15T01:34:41;48.90;;;30.43;;
5890;SDS011;2971;52.420;7.080;2023-02-15T01:37:07;46.63;;;31.80;;
5890;SDS011;2971;52.420;7.080;2023-02-15T01:39:32;44.57;;;29.53;;
5890;SDS011;2971;52.420;7.080;2023-02-15T01:41:57;45.57;;;31.00;;
5890;SDS011;2971;52.420;7.080;2023-02-15T01:47:11;46.30;;;31.03;;
5890;SDS011;2971;52.420;7.080;2023-02-15T01:49:39;50.13;;;30.73;;
5890;SDS011;2971;52.420;7.080;2023-02-15T01:52:08;51.67;;;32.87;;
5890;SDS011;2971;52.420;7.080;2023-02-15T01:54:34;49.50;;;32.43;;
5890;SDS011;2971;52.420;7.080;2023-02-15T01:57:03;44.23;;;29.27;;
5890;SDS011;2971;52.420;7.080;2023-02-15T01:59:30;47.50;;;30.47;;
5890;SDS011;2971;52.420;7.080;2023-02-15T02:01:57;48.90;;;30.57;;
5890;SDS011;2971;52.420;7.080;2023-02-15T02:04:25;42.97;;;30.07;;
5890;SDS011;2971;52.420;7.080;2023-02-15T02:07:19;48.17;;;30.87;;
5890;SDS011;2971;52.420;7.080;2023-02-15T02:09:45;53.57;;;31.27;;
5890;SDS011;2971;52.420;7.080;2023-02-15T02:12:11;51.70;;;33.50;;
5890;SDS011;2971;52.420;7.080;2023-02-15T02:14:37;49.40;;;31.70;;
5890;SDS011;2971;52.420;7.080;2023-02-15T02:17:06;48.00;;;29.67;;
5890;SDS011;2971;52.420;7.080;2023-02-15T02:22:26;49.40;;;31.83;;
5890;SDS011;2971;52.420;7.080;2023-02-15T02:36:05;49.50;;;31.87;;
5890;SDS011;2971;52.420;7.080;2023-02-15T02:41:20;49.73;;;31.80;;
5890;SDS011;2971;52.420;7.080;2023-02-15T02:46:46;51.43;;;32.07;;
5890;SDS011;2971;52.420;7.080;2023-02-15T02:49:16;48.97;;;31.43;;
5890;SDS011;2971;52.420;7.080;2023-02-15T02:51:41;53.97;;;31.17;;
5890;SDS011;2971;52.420;7.080;2023-02-15T02:54:07;55.27;;;33.57;;
5890;SDS011;2971;52.420;7.080;2023-02-15T02:59:09;52.70;;;31.83;;
5890;SDS011;2971;52.420;7.080;2023-02-15T03:01:39;53.13;;;31.90;;
5890;SDS011;2971;52.420;7.080;2023-02-15T03:04:10;54.70;;;33.83;;
5890;SDS011;2971;52.420;7.080;2023-02-15T03:06:57;62.67;;;36.57;;
5890;SDS011;2971;52.420;7.080;2023-02-15T03:09:33;56.90;;;34.30;;
5890;SDS011;2971;52.420;7.080;2023-02-15T03:12:06;55.23;;;34.03;;
5890;SDS011;2971;52.420;7.080;2023-02-15T03:14:32;53.33;;;32.80;;
5890;SDS011;2971;52.420;7.080;2023-02-15T03:16:58;46.33;;;29.90;;
5890;SDS011;2971;52.420;7.080;2023-02-15T03:19:28;45.83;;;30.53;;
5890;SDS011;2971;52.420;7.080;2023-02-15T03:21:57;48.77;;;30.73;;
5890;SDS011;2971;52.420;7.080;2023-02-15T03:24:41;49.93;;;30.80;;
5890;SDS011;2971;52.420;7.080;2023-02-15T03:27:14;46.10;;;30.20;;
5890;SDS011;2971;52.420;7.080;2023-02-15T03:29:42;44.80;;;29.67;;
5890;SDS011;2971;52.420;7.080;2023-02-15T03:32:10;45.63;;;29.03;;
5890;SDS011;2971;52.420;7.080;2023-02-15T03:34:36;46.37;;;28.77;;
5890;SDS011;2971;52.420;7.080;2023-02-15T03:39:45;47.90;;;30.63;;
5890;SDS011;2971;52.420;7.080;2023-02-15T03:42:43;43.73;;;28.70;;
5890;SDS011;2971;52.420;7.080;2023-02-15T03:45:10;45.80;;;29.47;;
5890;SDS011;2971;52.420;7.080;2023-02-15T03:47:40;46.40;;;29.13;;
5890;SDS011;2971;52.420;7.080;2023-02-15T03:50:13;45.30;;;29.00;;
5890;SDS011;2971;52.420;7.080;2023-02-15T03:52:58;45.90;;;27.90;;
5890;SDS011;2971;52.420;7.080;2023-02-15T03:55:25;45.03;;;26.83;;
5890;SDS011;2971;52.420;7.080;2023-02-15T03:57:51;47.60;;;27.50;;
5890;SDS011;2971;52.420;7.080;2023-02-15T04:00:35;42.90;;;27.17;;
5890;SDS011;2971;52.420;7.080;2023-02-15T04:06:00;39.53;;;26.67;;
5890;SDS011;2971;52.420;7.080;2023-02-15T04:08:26;45.00;;;26.53;;
5890;SDS011;2971;52.420;7.080;2023-02-15T04:11:12;42.17;;;26.47;;
5890;SDS011;2971;52.420;7.080;2023-02-15T04:13:37;38.60;;;25.90;;
5890;SDS011;2971;52.420;7.080;2023-02-15T04:16:03;43.63;;;27.13;;
5890;SDS011;2971;52.420;7.080;2023-02-15T04:18:33;40.13;;;26.93;;
5890;SDS011;2971;52.420;7.080;2023-02-15T04:21:17;42.73;;;26.67;;
5890;SDS011;2971;52.420;7.080;2023-02-15T04:24:01;47.03;;;28.70;;
5890;SDS011;2971;52.420;7.080;2023-02-15T04:26:45;39.70;;;27.10;;
5890;SDS011;2971;52.420;7.080;2023-02-15T04:29:12;43.87;;;26.63;;
5890;SDS011;2971;52.420;7.080;2023-02-15T04:31:38;40.50;;;26.67;;
5890;SDS011;2971;52.420;7.080;2023-02-15T04:34:04;43.20;;;26.90;;
5890;SDS011;2971;52.420;7.080;2023-02-15T04:36:29;40.37;;;26.30;;
5890;SDS011;2971;52.420;7.080;2023-02-15T04:38:54;41.43;;;26.57;;
5890;SDS011;2971;52.420;7.080;2023-02-15T04:41:20;37.53;;;26.37;;
5890;SDS011;2971;52.420;7.080;2023-02-15T04:43:45;43.00;;;27.17;;
5890;SDS011;2971;52.420;7.080;2023-02-15T04:46:11;45.23;;;30.03;;
5890;SDS011;2971;52.420;7.080;2023-02-15T04:48:36;45.20;;;29.83;;
5890;SDS011;2971;52.420;7.080;2023-02-15T04:51:05;47.57;;;30.77;;
5890;SDS011;2971;52.420;7.080;2023-02-15T04:53:34;43.30;;;27.30;;
5890;SDS011;2971;52.420;7.080;2023-02-15T04:55:59;50.93;;;29.50;;
5890;SDS011;2971;52.420;7.080;2023-02-15T04:58:25;48.07;;;28.53;;
5890;SDS011;2971;52.420;7.080;2023-02-15T05:00:50;42.30;;;26.53;;
5890;SDS011;2971;52.420;7.080;2023-02-15T05:03:19;49.57;;;29.57;;
5890;SDS011;2971;52.420;7.080;2023-02-15T05:05:44;50.40;;;31.13;;
5890;SDS011;2971;52.420;7.080;2023-02-15T05:08:10;42.50;;;27.77;;
5890;SDS011;2971;52.420;7.080;2023-02-15T05:10:35;45.90;;;26.33;;
5890;SDS011;2971;52.420;7.080;2023-02-15T05:13:01;45.50;;;29.37;;
5890;SDS011;2971;52.420;7.080;2023-02-15T05:15:26;47.60;;;30.43;;
5890;SDS011;2971;52.420;7.080;2023-02-15T05:17:51;47.90;;;28.67;;
5890;SDS011;2971;52.420;7.080;2023-02-15T05:20:17;47.27;;;29.43;;
5890;SDS011;2971;52.420;7.080;2023-02-15T05:22:43;47.83;;;29.80;;
5890;SDS011;2971;52.420;7.080;2023-02-15T05:25:09;44.20;;;28.33;;
5890;SDS011;2971;52.420;7.080;2023-02-15T05:27:53;46.63;;;28.73;;
5890;SDS011;2971;52.420;7.080;2023-02-15T05:30:37;41.63;;;26.33;;
5890;SDS011;2971;52.420;7.080;2023-02-15T05:33:04;43.40;;;24.93;;
5890;SDS011;2971;52.420;7.080;2023-02-15T05:35:31;46.20;;;28.77;;
5890;SDS011;2971;52.420;7.080;2023-02-15T05:37:57;45.43;;;28.63;;
5890;SDS011;2971;52.420;7.080;2023-02-15T05:40:22;44.47;;;29.33;;
5890;SDS011;2971;52.420;7.080;2023-02-15T05:42:47;40.97;;;26.40;;
5890;SDS011;2971;52.420;7.080;2023-02-15T05:45:13;45.00;;;28.03;;
5890;SDS011;2971;52.420;7.080;2023-02-15T05:47:38;48.37;;;29.07;;
5890;SDS011;2971;52.420;7.080;2023-02-15T05:50:04;46.07;;;28.73;;
5890;SDS011;2971;52.420;7.080;2023-02-15T05:52:30;49.83;;;30.13;;
5890;SDS011;2971;52.420;7.080;2023-02-15T05:54:55;47.47;;;28.67;;
5890;SDS011;2971;52.420;7.080;2023-02-15T05:57:20;52.83;;;30.60;;
5890;SDS011;2971;52.420;7.080;2023-02-15T05:59:46;49.27;;;31.83;;
5890;SDS011;2971;52.420;7.080;2023-02-15T06:02:11;52.33;;;29.43;;
5890;SDS011;2971;52.420;7.080;2023-02-15T06:04:38;50.47;;;29.73;;
5890;SDS011;2971;52.420;7.080;2023-02-15T06:07:03;52.67;;;30.30;;
5890;SDS011;2971;52.420;7.080;2023-02-15T06:09:28;59.47;;;33.93;;
5890;SDS011;2971;52.420;7.080;2023-02-15T06:11:54;55.07;;;31.87;;
5890;SDS011;2971;52.420;7.080;2023-02-15T06:14:19;56.23;;;32.43;;
5890;SDS011;2971;52.420;7.080;2023-02-15T06:16:44;53.67;;;31.60;;
5890;SDS011;2971;52.420;7.080;2023-02-15T06:19:10;48.27;;;30.63;;
5890;SDS011;2971;52.420;7.080;2023-02-15T06:21:35;50.03;;;30.27;;
5890;SDS011;2971;52.420;7.080;2023-02-15T06:24:00;47.13;;;28.17;;
5890;SDS011;2971;52.420;7.080;2023-02-15T06:26:26;50.17;;;30.10;;
5890;SDS011;2971;52.420;7.080;2023-02-15T06:28:51;51.03;;;29.77;;
5890;SDS011;2971;52.420;7.080;2023-02-15T06:31:17;55.80;;;31.63;;
5890;SDS011;2971;52.420;7.080;2023-02-15T06:33:42;54.27;;;32.40;;
5890;SDS011;2971;52.420;7.080;2023-02-15T06:36:08;57.03;;;34.07;;
5890;SDS011;2971;52.420;7.080;2023-02-15T06:38:33;55.13;;;33.27;;
5890;SDS011;2971;52.420;7.080;2023-02-15T06:40:59;60.00;;;35.93;;
5890;SDS011;2971;52.420;7.080;2023-02-15T06:43:24;57.43;;;34.00;;
5890;SDS011;2971;52.420;7.080;2023-02-15T06:45:49;61.80;;;35.33;;
5890;SDS011;2971;52.420;7.080;2023-02-15T06:48:15;57.40;;;35.60;;
5890;SDS011;2971;52.420;7.080;2023-02-15T06:50:40;64.77;;;38.37;;
5890;SDS011;2971;52.420;7.080;2023-02-15T06:53:06;67.57;;;39.67;;
5890;SDS011;2971;52.420;7.080;2023-02-15T06:55:31;57.57;;;36.27;;
5890;SDS011;2971;52.420;7.080;2023-02-15T06:57:57;64.43;;;36.93;;
5890;SDS011;2971;52.420;7.080;2023-02-15T07:00:22;59.27;;;36.53;;
5890;SDS011;2971;52.420;7.080;2023-02-15T07:02:52;59.43;;;35.50;;
5890;SDS011;2971;52.420;7.080;2023-02-15T07:05:20;60.90;;;36.60;;
5890;SDS011;2971;52.420;7.080;2023-02-15T07:07:45;58.87;;;33.53;;
5890;SDS011;2971;52.420;7.080;2023-02-15T07:10:11;58.67;;;35.17;;
5890;SDS011;2971;52.420;7.080;2023-02-15T07:12:36;61.70;;;36.77;;
5890;SDS011;2971;52.420;7.080;2023-02-15T07:15:09;55.47;;;33.43;;
5890;SDS011;2971;52.420;7.080;2023-02-15T07:17:36;60.80;;;35.33;;
5890;SDS011;2971;52.420;7.080;2023-02-15T07:20:09;58.90;;;34.60;;
5890;SDS011;2971;52.420;7.080;2023-02-15T07:22:36;59.07;;;35.80;;
5890;SDS011;2971;52.420;7.080;2023-02-15T07:25:05;63.50;;;37.10;;
5890;SDS011;2971;52.420;7.080;2023-02-15T07:27:32;62.80;;;36.83;;
5890;SDS011;2971;52.420;7.080;2023-02-15T07:29:57;62.67;;;39.23;;
5890;SDS011;2971;52.420;7.080;2023-02-15T07:32:23;66.63;;;39.60;;
5890;SDS011;2971;52.420;7.080;2023-02-15T07:34:48;68.67;;;40.30;;
5890;SDS011;2971;52.420;7.080;2023-02-15T07:37:14;71.03;;;41.20;;
5890;SDS011;2971;52.420;7.080;2023-02-15T07:39:39;69.37;;;40.83;;
5890;SDS011;2971;52.420;7.080;2023-02-15T07:42:05;69.90;;;42.03;;
5890;SDS011;2971;52.420;7.080;2023-02-15T07:44:30;75.83;;;42.23;;
5890;SDS011;2971;52.420;7.080;2023-02-15T07:46:55;67.63;;;40.50;;
5890;SDS011;2971;52.420;7.080;2023-02-15T07:49:21;69.47;;;42.53;;
5890;SDS011;2971;52.420;7.080;2023-02-15T07:51:46;68.70;;;42.47;;
5890;SDS011;2971;52.420;7.080;2023-02-15T07:54:12;73.67;;;45.63;;
5890;SDS011;2971;52.420;7.080;2023-02-15T07:56:37;71.83;;;45.63;;
5890;SDS011;2971;52.420;7.080;2023-02-15T07:59:02;76.80;;;45.50;;
5890;SDS011;2971;52.420;7.080;2023-02-15T08:01:30;74.23;;;45.93;;
5890;SDS011;2971;52.420;7.080;2023-02-15T08:04:00;74.30;;;47.27;;
5890;SDS011;2971;52.420;7.080;2023-02-15T08:06:27;76.97;;;50.03;;
5890;SDS011;2971;52.420;7.080;2023-02-15T08:08:54;85.33;;;51.97;;
5890;SDS011;2971;52.420;7.080;2023-02-15T08:11:20;79.57;;;49.93;;
5890;SDS011;2971;52.420;7.080;2023-02-15T08:16:35;78.47;;;50.83;;
5890;SDS011;2971;52.420;7.080;2023-02-15T08:21:54;80.57;;;50.63;;
5890;SDS011;2971;52.420;7.080;2023-02-15T08:24:25;76.77;;;49.30;;
5890;SDS011;2971;52.420;7.080;2023-02-15T08:26:51;76.37;;;51.53;;
5890;SDS011;2971;52.420;7.080;2023-02-15T08:29:18;76.77;;;51.53;;
5890;SDS011;2971;52.420;7.080;2023-02-15T08:31:46;77.43;;;52.13;;
5890;SDS011;2971;52.420;7.080;2023-02-15T08:34:14;76.53;;;52.70;;
5890;SDS011;2971;52.420;7.080;2023-02-15T08:36:40;76.90;;;53.60;;
5890;SDS011;2971;52.420;7.080;2023-02-15T08:39:06;75.33;;;53.90;;
5890;SDS011;2971;52.420;7.080;2023-02-15T08:41:33;77.27;;;55.17;;
5890;SDS011;2971;52.420;7.080;2023-02-15T08:44:01;72.70;;;51.53;;
5890;SDS011;2971;52.420;7.080;2023-02-15T08:46:29;74.67;;;53.13;;
5890;SDS011;2971;52.420;7.080;2023-02-15T08:48:56;78.60;;;54.73;;
5890;SDS011;2971;52.420;7.080;2023-02-15T08:51:22;75.80;;;53.40;;
5890;SDS011;2971;52.420;7.080;2023-02-15T08:53:51;74.63;;;55.47;;
5890;SDS011;2971;52.420;7.080;2023-02-15T08:56:19;73.60;;;54.87;;
5890;SDS011;2971;52.420;7.080;2023-02-15T08:58:46;76.73;;;56.40;;
5890;SDS011;2971;52.420;7.080;2023-02-15T09:01:15;76.07;;;55.43;;
5890;SDS011;2971;52.420;7.080;2023-02-15T09:03:43;76.53;;;54.43;;
5890;SDS011;2971;52.420;7.080;2023-02-15T09:06:09;78.53;;;54.30;;
5890;SDS011;2971;52.420;7.080;2023-02-15T09:08:34;78.77;;;58.10;;
5890;SDS011;2971;52.420;7.080;2023-02-15T09:11:19;76.70;;;55.43;;
5890;SDS011;2971;52.420;7.080;2023-02-15T09:13:56;75.63;;;55.40;;
5890;SDS011;2971;52.420;7.080;2023-02-15T09:16:24;74.23;;;54.03;;
5890;SDS011;2971;52.420;7.080;2023-02-15T09:18:50;73.60;;;53.93;;
5890;SDS011;2971;52.420;7.080;2023-02-15T09:21:17;73.93;;;54.57;;
5890;SDS011;2971;52.420;7.080;2023-02-15T09:23:45;70.80;;;53.17;;
5890;SDS011;2971;52.420;7.080;2023-02-15T09:26:12;68.60;;;52.93;;
5890;SDS011;2971;52.420;7.080;2023-02-15T09:28:40;65.13;;;52.07;;
5890;SDS011;2971;52.420;7.080;2023-02-15T09:33:34;61.30;;;49.87;;
5890;SDS011;2971;52.420;7.080;2023-02-15T09:36:00;58.37;;;48.40;;
5890;SDS011;2971;52.420;7.080;2023-02-15T09:38:26;62.90;;;49.77;;
5890;SDS011;2971;52.420;7.080;2023-02-15T09:41:00;56.60;;;46.77;;
5890;SDS011;2971;52.420;7.080;2023-02-15T09:43:30;54.27;;;45.43;;
5890;SDS011;2971;52.420;7.080;2023-02-15T09:46:05;58.00;;;46.73;;
5890;SDS011;2971;52.420;7.080;2023-02-15T09:48:41;55.70;;;45.27;;
5890;SDS011;2971;52.420;7.080;2023-02-15T09:56:22;53.13;;;43.63;;
5890;SDS011;2971;52.420;7.080;2023-02-15T09:58:57;51.70;;;42.60;;
5890;SDS011;2971;52.420;7.080;2023-02-15T10:06:32;49.10;;;40.47;;
5890;SDS011;2971;52.420;7.080;2023-02-15T10:19:34;48.37;;;39.30;;
5890;SDS011;2971;52.420;7.080;2023-02-15T10:27:29;47.77;;;39.73;;
5890;SDS011;2971;52.420;7.080;2023-02-15T10:30:10;48.63;;;40.17;;
5890;SDS011;2971;52.420;7.080;2023-02-15T10:37:59;46.53;;;38.37;;
5890;SDS011;2971;52.420;7.080;2023-02-15T10:40:34;47.27;;;38.47;;
5890;SDS011;2971;52.420;7.080;2023-02-15T10:46:12;44.30;;;36.70;;
5890;SDS011;2971;52.420;7.080;2023-02-15T10:49:05;48.20;;;37.63;;
5890;SDS011;2971;52.420;7.080;2023-02-15T11:05:31;46.23;;;36.90;;
5890;SDS011;2971;52.420;7.080;2023-02-15T11:08:04;46.03;;;35.73;;
5890;SDS011;2971;52.420;7.080;2023-02-15T11:13:20;45.40;;;36.23;;
5890;SDS011;2971;52.420;7.080;2023-02-15T11:15:55;43.77;;;36.20;;
5890;SDS011;2971;52.420;7.080;2023-02-15T11:23:40;41.80;;;33.77;;
5890;SDS011;2971;52.420;7.080;2023-02-15T11:26:15;43.00;;;34.30;;
5890;SDS011;2971;52.420;7.080;2023-02-15T11:28:59;44.13;;;33.73;;
5890;SDS011;2971;52.420;7.080;2023-02-15T11:31:26;44.13;;;33.77;;
5890;SDS011;2971;52.420;7.080;2023-02-15T11:34:02;42.53;;;33.73;;
5890;SDS011;2971;52.420;7.080;2023-02-15T11:36:33;44.07;;;34.10;;
5890;SDS011;2971;52.420;7.080;2023-02-15T11:39:02;46.37;;;35.07;;
5890;SDS011;2971;52.420;7.080;2023-02-15T11:41:59;45.27;;;33.40;;
5890;SDS011;2971;52.420;7.080;2023-02-15T11:44:33;42.80;;;33.83;;
5890;SDS011;2971;52.420;7.080;2023-02-15T11:47:01;46.53;;;34.60;;
5890;SDS011;2971;52.420;7.080;2023-02-15T11:49:29;42.93;;;32.47;;
5890;SDS011;2971;52.420;7.080;2023-02-15T11:51:56;42.43;;;32.87;;
5890;SDS011;2971;52.420;7.080;2023-02-15T11:54:32;44.90;;;33.30;;
5890;SDS011;2971;52.420;7.080;2023-02-15T11:57:23;42.57;;;32.90;;
5890;SDS011;2971;52.420;7.080;2023-02-15T12:00:02;45.57;;;33.57;;
5890;SDS011;2971;52.420;7.080;2023-02-15T12:02:35;44.00;;;33.07;;
5890;SDS011;2971;52.420;7.080;2023-02-15T12:05:07;40.63;;;32.27;;
5890;SDS011;2971;52.420;7.080;2023-02-15T12:07:36;42.00;;;31.77;;
5890;SDS011;2971;52.420;7.080;2023-02-15T12:13:08;42.43;;;32.03;;
5890;SDS011;2971;52.420;7.080;2023-02-15T12:15:42;41.60;;;31.80;;
5890;SDS011;2971;52.420;7.080;2023-02-15T12:21:09;44.93;;;29.43;;
5890;SDS011;2971;52.420;7.080;2023-02-15T12:23:56;41.70;;;28.23;;
5890;SDS011;2971;52.420;7.080;2023-02-15T12:28:55;40.30;;;24.67;;
5890;SDS011;2971;52.420;7.080;2023-02-15T12:31:27;39.77;;;24.00;;
5890;SDS011;2971;52.420;7.080;2023-02-15T12:33:56;42.10;;;23.10;;
5890;SDS011;2971;52.420;7.080;2023-02-15T12:36:30;38.40;;;22.53;;
5890;SDS011;2971;52.420;7.080;2023-02-15T12:41:56;37.97;;;23.37;;
5890;SDS011;2971;52.420;7.080;2023-02-15T12:44:25;36.17;;;21.33;;
5890;SDS011;2971;52.420;7.080;2023-02-15T12:49:29;38.03;;;21.97;;
5890;SDS011;2971;52.420;7.080;2023-02-15T12:51:59;38.93;;;22.77;;
5890;SDS011;2971;52.420;7.080;2023-02-15T12:54:47;34.47;;;20.60;;
5890;SDS011;2971;52.420;7.080;2023-02-15T12:59:49;37.23;;;21.90;;
5890;SDS011;2971;52.420;7.080;2023-02-15T13:02:19;34.40;;;21.53;;
5890;SDS011;2971;52.420;7.080;2023-02-15T13:04:47;38.07;;;21.40;;
5890;SDS011;2971;52.420;7.080;2023-02-15T13:07:14;38.33;;;22.60;;
5890;SDS011;2971;52.420;7.080;2023-02-15T13:09:39;38.03;;;22.53;;
5890;SDS011;2971;52.420;7.080;2023-02-15T13:14:43;40.00;;;21.93;;
5890;SDS011;2971;52.420;7.080;2023-02-15T13:17:10;38.27;;;21.67;;
5890;SDS011;2971;52.420;7.080;2023-02-15T13:19:39;34.83;;;22.03;;
5890;SDS011;2971;52.420;7.080;2023-02-15T13:22:13;37.10;;;22.43;;
5890;SDS011;2971;52.420;7.080;2023-02-15T13:24:41;39.13;;;21.83;;
5890;SDS011;2971;52.420;7.080;2023-02-15T13:27:10;38.60;;;21.63;;
5890;SDS011;2971;52.420;7.080;2023-02-15T13:29:39;34.80;;;21.77;;
5890;SDS011;2971;52.420;7.080;2023-02-15T13:32:21;36.47;;;21.87;;
5890;SDS011;2971;52.420;7.080;2023-02-15T13:34:47;38.23;;;22.23;;
5890;SDS011;2971;52.420;7.080;2023-02-15T13:40:33;35.00;;;21.80;;
5890;SDS011;2971;52.420;7.080;2023-02-15T13:42:48;34.27;;;21.07;;
5890;SDS011;2971;52.420;7.080;2023-02-15T14:01:56;35.50;;;21.00;;
5890;SDS011;2971;52.420;7.080;2023-02-15T14:04:39;35.80;;;22.50;;
5890;SDS011;2971;52.420;7.080;2023-02-15T14:16:04;35.90;;;24.63;;
5890;SDS011;2971;52.420;7.080;2023-02-15T14:18:51;35.93;;;21.37;;
5890;SDS011;2971;52.420;7.080;2023-02-15T14:21:42;36.20;;;20.47;;
5890;SDS011;2971;52.420;7.080;2023-02-15T14:27:03;38.20;;;21.67;;
5890;SDS011;2971;52.420;7.080;2023-02-15T14:34:52;36.00;;;22.00;;
5890;SDS011;2971;52.420;7.080;2023-02-15T14:43:11;35.73;;;20.03;;
5890;SDS011;2971;52.420;7.080;2023-02-15T14:48:32;40.77;;;20.87;;
5890;SDS011;2971;52.420;7.080;2023-02-15T14:51:00;34.37;;;20.00;;
5890;SDS011;2971;52.420;7.080;2023-02-15T14:58:35;40.73;;;20.43;;
5890;SDS011;2971;52.420;7.080;2023-02-15T15:01:11;34.97;;;20.27;;
5890;SDS011;2971;52.420;7.080;2023-02-15T15:03:36;33.50;;;20.07;;
5890;SDS011;2971;52.420;7.080;2023-02-15T15:06:20;36.63;;;20.40;;
5890;SDS011;2971;52.420;7.080;2023-02-15T15:08:49;36.40;;;20.50;;
5890;SDS011;2971;52.420;7.080;2023-02-15T15:14:00;37.07;;;20.57;;
5890;SDS011;2971;52.420;7.080;2023-02-15T15:16:31;35.53;;;20.40;;
5890;SDS011;2971;52.420;7.080;2023-02-15T15:19:12;34.47;;;20.30;;
5890;SDS011;2971;52.420;7.080;2023-02-15T15:22:19;38.30;;;20.70;;
5890;SDS011;2971;52.420;7.080;2023-02-15T15:24:53;35.73;;;21.70;;
5890;SDS011;2971;52.420;7.080;2023-02-15T15:33:04;34.33;;;20.73;;
5890;SDS011;2971;52.420;7.080;2023-02-15T15:43:34;35.97;;;21.00;;
5890;SDS011;2971;52.420;7.080;2023-02-15T15:49:18;37.67;;;20.07;;
5890;SDS011;2971;52.420;7.080;2023-02-15T15:51:44;34.47;;;22.37;;
5890;SDS011;2971;52.420;7.080;2023-02-15T15:54:14;37.13;;;25.97;;
5890;SDS011;2971;52.420;7.080;2023-02-15T15:56:45;35.07;;;21.13;;
5890;SDS011;2971;52.420;7.080;2023-02-15T15:59:15;39.17;;;23.70;;
5890;SDS011;2971;52.420;7.080;2023-02-15T16:01:44;37.83;;;23.03;;
5890;SDS011;2971;52.420;7.080;2023-02-15T16:04:10;36.30;;;23.90;;
5890;SDS011;2971;52.420;7.080;2023-02-15T16:06:38;37.07;;;25.53;;
5890;SDS011;2971;52.420;7.080;2023-02-15T16:09:16;36.97;;;25.07;;
5890;SDS011;2971;52.420;7.080;2023-02-15T16:11:43;39.30;;;25.60;;
5890;SDS011;2971;52.420;7.080;2023-02-15T16:14:13;36.43;;;27.33;;
5890;SDS011;2971;52.420;7.080;2023-02-15T16:16:40;38.47;;;27.63;;
5890;SDS011;2971;52.420;7.080;2023-02-15T16:19:14;37.23;;;27.13;;
5890;SDS011;2971;52.420;7.080;2023-02-15T16:22:01;39.80;;;27.67;;
5890;SDS011;2971;52.420;7.080;2023-02-15T16:32:47;35.07;;;25.27;;
5890;SDS011;2971;52.420;7.080;2023-02-15T16:35:17;37.30;;;26.13;;
5890;SDS011;2971;52.420;7.080;2023-02-15T16:37:44;37.83;;;26.10;;
5890;SDS011;2971;52.420;7.080;2023-02-15T16:42:51;35.93;;;27.30;;
5890;SDS011;2971;52.420;7.080;2023-02-15T16:45:18;40.40;;;27.73;;
5890;SDS011;2971;52.420;7.080;2023-02-15T16:47:45;38.67;;;27.80;;
5890;SDS011;2971;52.420;7.080;2023-02-15T16:50:19;38.10;;;27.20;;
5890;SDS011;2971;52.420;7.080;2023-02-15T16:52:46;35.90;;;25.77;;
5890;SDS011;2971;52.420;7.080;2023-02-15T16:55:19;37.93;;;26.97;;
5890;SDS011;2971;52.420;7.080;2023-02-15T16:57:46;38.17;;;26.90;;
5890;SDS011;2971;52.420;7.080;2023-02-15T17:00:19;36.40;;;27.00;;
5890;SDS011;2971;52.420;7.080;2023-02-15T17:03:32;38.37;;;27.33;;
5890;SDS011;2971;52.420;7.080;2023-02-15T17:08:13;41.40;;;27.90;;
5890;SDS011;2971;52.420;7.080;2023-02-15T17:10:41;37.30;;;26.63;;
5890;SDS011;2971;52.420;7.080;2023-02-15T17:13:14;38.80;;;28.37;;
5890;SDS011;2971;52.420;7.080;2023-02-15T17:15:46;39.00;;;27.63;;
5890;SDS011;2971;52.420;7.080;2023-02-15T17:18:39;41.67;;;29.40;;
5890;SDS011;2971;52.420;7.080;2023-02-15T17:21:13;38.37;;;27.80;;
5890;SDS011;2971;52.420;7.080;2023-02-15T17:23:46;41.97;;;28.57;;
5890;SDS011;2971;52.420;7.080;2023-02-15T17:26:46;41.17;;;27.80;;
5890;SDS011;2971;52.420;7.080;2023-02-15T17:29:14;37.43;;;28.13;;
5890;SDS011;2971;52.420;7.080;2023-02-15T17:31:49;40.17;;;29.17;;
5890;SDS011;2971;52.420;7.080;2023-02-15T17:37:13;41.10;;;30.57;;
5890;SDS011;2971;52.420;7.080;2023-02-15T17:42:42;43.10;;;28.93;;
5890;SDS011;2971;52.420;7.080;2023-02-15T17:45:08;38.43;;;29.13;;
5890;SDS011;2971;52.420;7.080;2023-02-15T17:47:33;40.83;;;30.43;;
5890;SDS011;2971;52.420;7.080;2023-02-15T17:49:58;42.30;;;30.30;;
5890;SDS011;2971;52.420;7.080;2023-02-15T17:52:26;43.03;;;30.07;;
5890;SDS011;2971;52.420;7.080;2023-02-15T17:54:53;42.80;;;31.77;;
5890;SDS011;2971;52.420;7.080;2023-02-15T17:57:37;42.23;;;31.63;;
5890;SDS011;2971;52.420;7.080;2023-02-15T18:00:03;42.60;;;31.50;;
5890;SDS011;2971;52.420;7.080;2023-02-15T18:02:48;42.90;;;32.03;;
5890;SDS011;2971;52.420;7.080;2023-02-15T18:05:32;42.60;;;31.67;;
5890;SDS011;2971;52.420;7.080;2023-02-15T18:08:17;43.93;;;30.83;;
5890;SDS011;2971;52.420;7.080;2023-02-15T18:11:01;41.63;;;30.03;;
5890;SDS011;2971;52.420;7.080;2023-02-15T18:13:45;44.27;;;33.03;;
5890;SDS011;2971;52.420;7.080;2023-02-15T18:16:15;44.50;;;34.20;;
5890;SDS011;2971;52.420;7.080;2023-02-15T18:18:43;45.83;;;34.23;;
5890;SDS011;2971;52.420;7.080;2023-02-15T18:21:09;43.87;;;34.10;;
5890;SDS011;2971;52.420;7.080;2023-02-15T18:23:36;44.27;;;34.30;;
5890;SDS011;2971;52.420;7.080;2023-02-15T18:26:01;45.90;;;34.80;;
5890;SDS011;2971;52.420;7.080;2023-02-15T18:28:27;45.97;;;35.20;;
5890;SDS011;2971;52.420;7.080;2023-02-15T18:30:52;41.37;;;32.33;;